Time;durP1;ratioP1;P1;durP2;ratioP2;P2;SDS_P1;SDS_P2;PMS_P1;PMS_P2;Temp;Humidity;BMP_temperature;BMP_pressure;BME280_temperature;BME280_humidity;BME280_pressure;Samples;Min_cycle;Max_cycle;Signal;HPM_P1;HPM_P2
2022/07/02 00:00:48;;;;;;;7.00;4.90;;;23.20;47.60;;;;;;5025832;28;45468;-69
2022/07/02 00:03:15;;;;;;;8.50;5.30;;;23.20;47.60;;;;;;5026118;28;45335;-69
2022/07/02 00:05:45;;;;;;;7.25;5.10;;;23.20;47.50;;;;;;5026231;28;45286;-69
2022/07/02 00:08:13;;;;;;;8.40;5.40;;;23.20;47.50;;;;;;5026347;28;45229;-69
2022/07/02 00:10:40;;;;;;;8.18;5.38;;;23.20;47.60;;;;;;5042509;28;47318;-69
2022/07/02 00:13:06;;;;;;;9.30;5.47;;;23.20;47.50;;;;;;5045959;28;45284;-70
2022/07/02 00:15:34;;;;;;;8.90;5.80;;;23.10;47.50;;;;;;5046013;28;45348;-70
2022/07/02 00:18:01;;;;;;;7.90;5.80;;;23.10;47.70;;;;;;5046353;28;45178;-69
2022/07/02 00:20:27;;;;;;;8.13;5.70;;;23.10;47.60;;;;;;5045620;28;45269;-69
2022/07/02 00:22:54;;;;;;;9.50;6.00;;;23.10;47.70;;;;;;5045862;28;45278;-69
2022/07/02 00:25:22;;;;;;;8.35;5.82;;;23.10;48.30;;;;;;5045975;28;45397;-70
2022/07/02 00:27:49;;;;;;;8.52;6.13;;;23.10;47.70;;;;;;5046136;28;45200;-69
2022/07/02 00:30:16;;;;;;;9.90;6.18;;;23.00;47.60;;;;;;5043096;28;45276;-69
2022/07/02 00:32:43;;;;;;;12.73;6.40;;;23.00;47.70;;;;;;5045697;28;45193;-69
2022/07/02 00:35:10;;;;;;;11.15;6.53;;;23.00;47.70;;;;;;5046043;28;45254;-69
2022/07/02 00:37:37;;;;;;;9.48;6.20;;;23.10;47.80;;;;;;5045933;28;45284;-69
2022/07/02 00:40:05;;;;;;;11.23;6.80;;;23.00;47.70;;;;;;5045520;28;46839;-69
2022/07/02 00:42:34;;;;;;;8.55;6.13;;;23.00;47.80;;;;;;5045513;28;45240;-69
2022/07/02 00:45:01;;;;;;;11.55;6.60;;;23.00;47.80;;;;;;5045699;28;45438;-69
2022/07/02 00:47:28;;;;;;;8.93;5.95;;;22.90;47.70;;;;;;5045543;28;45437;-69
2022/07/02 00:49:54;;;;;;;13.02;6.93;;;22.90;47.80;;;;;;5047415;28;47596;-69
2022/07/02 00:52:21;;;;;;;10.30;6.22;;;22.90;47.80;;;;;;5049265;28;45197;-69
2022/07/02 00:54:48;;;;;;;9.95;6.40;;;22.90;47.90;;;;;;5030185;28;45337;-69
2022/07/02 00:57:15;;;;;;;9.10;6.10;;;22.90;47.80;;;;;;5029199;28;45495;-69
2022/07/02 00:59:43;;;;;;;9.57;5.85;;;22.90;47.90;;;;;;5028839;28;46412;-69
2022/07/02 01:02:10;;;;;;;9.23;6.60;;;22.90;47.80;;;;;;5028786;28;45183;-69
2022/07/02 01:04:37;;;;;;;11.45;7.13;;;22.80;47.90;;;;;;5029007;28;45306;-69
2022/07/02 01:07:05;;;;;;;9.00;6.15;;;22.80;48.00;;;;;;5029094;28;45362;-69
2022/07/02 01:12:22;;;;;;;10.25;6.80;;;22.80;47.90;;;;;;5049057;28;45270;-69
2022/07/02 01:14:50;;;;;;;8.02;5.80;;;22.80;48.00;;;;;;5048905;28;45273;-69
2022/07/02 01:17:17;;;;;;;9.23;6.60;;;22.80;48.10;;;;;;5048888;28;45283;-69
2022/07/02 01:19:44;;;;;;;8.80;6.20;;;22.70;48.00;;;;;;5048644;28;45554;-69
2022/07/02 01:22:14;;;;;;;9.82;6.28;;;22.70;48.60;;;;;;5048561;28;45190;-69
2022/07/02 01:24:41;;;;;;;11.43;6.60;;;22.70;48.00;;;;;;5048692;28;45301;-69
2022/07/02 01:27:07;;;;;;;8.75;6.05;;;22.80;48.00;;;;;;5048835;28;45308;-69
2022/07/02 01:29:34;;;;;;;10.57;6.43;;;22.70;48.00;;;;;;5048446;28;47565;-69
2022/07/02 01:32:01;;;;;;;9.32;5.93;;;22.60;48.00;;;;;;5048483;28;45130;-69
2022/07/02 01:34:28;;;;;;;8.00;5.80;;;22.60;47.90;;;;;;5048560;28;45243;-69
2022/07/02 01:36:55;;;;;;;8.25;5.60;;;22.60;48.10;;;;;;5048813;28;44773;-69
2022/07/02 01:39:25;;;;;;;9.23;5.90;;;22.60;48.10;;;;;;5048573;28;45295;-69
2022/07/02 01:41:52;;;;;;;10.00;5.80;;;22.60;48.70;;;;;;5048278;28;45197;-69
2022/07/02 01:44:19;;;;;;;8.18;5.57;;;22.60;48.10;;;;;;5048467;28;45445;-69
2022/07/02 01:46:45;;;;;;;8.20;5.53;;;22.60;48.00;;;;;;5048535;28;45356;-69
2022/07/02 01:49:12;;;;;;;8.85;6.03;;;22.60;48.00;;;;;;5048126;28;46351;-69
2022/07/02 01:51:40;;;;;;;7.35;5.03;;;22.60;48.10;;;;;;5048286;28;45178;-69
2022/07/02 01:54:07;;;;;;;9.07;5.82;;;22.50;47.90;;;;;;5034824;28;45387;-69
2022/07/02 01:56:35;;;;;;;9.70;4.90;;;22.50;47.90;;;;;;5028367;28;45280;-69
2022/07/02 01:59:02;;;;;;;7.78;5.40;;;22.50;48.00;;;;;;5027969;28;45245;-69
2022/07/02 02:01:29;;;;;;;8.02;4.95;;;22.50;48.00;;;;;;5026941;28;45332;-69
2022/07/02 02:03:56;;;;;;;7.38;5.15;;;22.50;48.10;;;;;;5028074;28;45294;-69
2022/07/02 02:06:23;;;;;;;10.10;5.10;;;22.50;48.20;;;;;;5028176;28;45246;-70
2022/07/02 02:08:50;;;;;;;6.97;4.72;;;22.50;48.20;;;;;;5029318;28;47274;-69
2022/07/02 02:11:16;;;;;;;8.05;4.82;;;22.50;48.00;;;;;;5047885;28;45458;-69
2022/07/02 02:13:45;;;;;;;8.23;4.53;;;22.50;48.20;;;;;;5047967;28;45370;-69
2022/07/02 02:16:12;;;;;;;7.18;4.90;;;22.40;48.10;;;;;;5048166;28;45174;-69
2022/07/02 02:18:38;;;;;;;6.93;4.97;;;22.40;48.00;;;;;;5047665;28;45466;-69
2022/07/02 02:21:05;;;;;;;6.68;4.53;;;22.40;48.20;;;;;;5047685;28;45326;-69
2022/07/02 02:23:32;;;;;;;7.05;4.88;;;22.40;48.20;;;;;;5047876;28;45353;-69
2022/07/02 02:25:59;;;;;;;6.50;4.40;;;22.40;48.20;;;;;;5047951;28;45407;-69
2022/07/02 02:28:25;;;;;;;6.97;4.53;;;22.40;48.30;;;;;;5047546;28;45203;-69
2022/07/02 02:30:54;;;;;;;5.95;4.40;;;22.30;48.10;;;;;;5047783;28;45282;-69
2022/07/02 02:33:20;;;;;;;7.03;4.40;;;22.30;48.20;;;;;;5047572;28;45296;-69
2022/07/02 02:35:47;;;;;;;7.75;4.40;;;22.30;48.10;;;;;;5047724;28;45420;-69
2022/07/02 02:38:14;;;;;;;5.72;4.18;;;22.30;48.20;;;;;;5047489;28;45374;-69
2022/07/02 02:40:41;;;;;;;5.78;3.92;;;22.20;48.20;;;;;;5047372;28;45230;-69
2022/07/02 02:43:08;;;;;;;7.03;4.32;;;22.20;48.20;;;;;;5047489;28;45254;-69
2022/07/02 02:45:34;;;;;;;5.72;4.40;;;22.30;48.30;;;;;;5047596;28;45463;-69
2022/07/02 02:48:03;;;;;;;5.30;4.10;;;22.20;48.20;;;;;;5046906;28;45488;-69
2022/07/02 02:50:30;;;;;;;6.70;4.10;;;22.30;48.40;;;;;;5047368;28;45215;-69
2022/07/02 02:52:56;;;;;;;6.07;3.95;;;22.30;48.40;;;;;;5043550;28;45181;-69
2022/07/02 02:55:23;;;;;;;5.47;3.75;;;22.20;48.40;;;;;;5027471;28;45162;-69
2022/07/02 02:57:50;;;;;;;5.80;3.38;;;22.20;48.40;;;;;;5026946;28;45316;-69
2022/07/02 03:00:17;;;;;;;4.93;3.65;;;22.20;48.40;;;;;;5027000;28;45301;-69
2022/07/02 03:02:44;;;;;;;6.55;4.15;;;22.20;48.30;;;;;;5027043;28;45140;-69
2022/07/02 03:05:12;;;;;;;6.43;3.63;;;22.20;48.30;;;;;;5027370;28;45176;-69
2022/07/02 03:07:39;;;;;;;5.00;3.70;;;22.20;48.30;;;;;;5026832;28;45455;-69
2022/07/02 03:10:07;;;;;;;6.28;4.32;;;22.10;48.40;;;;;;5038805;28;45443;-69
2022/07/02 03:12:34;;;;;;;4.43;3.50;;;22.10;48.30;;;;;;5046877;28;45284;-69
2022/07/02 03:15:01;;;;;;;4.28;3.50;;;22.10;48.40;;;;;;5047363;28;45337;-69
2022/07/02 03:17:27;;;;;;;6.78;3.40;;;22.10;48.40;;;;;;5046774;28;45281;-69
2022/07/02 03:19:54;;;;;;;5.28;3.20;;;22.10;48.40;;;;;;5046921;28;45287;-69
2022/07/02 03:22:22;;;;;;;4.30;3.20;;;22.10;48.30;;;;;;5046833;28;45317;-69
2022/07/02 03:24:49;;;;;;;4.55;3.08;;;22.00;48.30;;;;;;5046875;28;45300;-69
2022/07/02 03:27:16;;;;;;;4.53;2.97;;;22.00;48.30;;;;;;5046549;28;46219;-69
2022/07/02 03:29:43;;;;;;;4.47;3.25;;;22.00;48.30;;;;;;5046672;28;45260;-69
2022/07/02 03:32:10;;;;;;;4.88;3.20;;;22.00;48.40;;;;;;5046681;28;45345;-69
2022/07/02 03:34:36;;;;;;;4.78;3.40;;;22.00;48.40;;;;;;5046904;28;45237;-69
2022/07/02 03:37:03;;;;;;;4.88;3.50;;;22.00;48.40;;;;;;5046326;28;48789;-69
2022/07/02 03:39:32;;;;;;;5.13;2.97;;;22.00;48.40;;;;;;5046483;28;45299;-69
2022/07/02 03:41:58;;;;;;;3.60;2.90;;;22.00;48.50;;;;;;5046522;28;45170;-69
2022/07/02 03:44:25;;;;;;;5.18;2.83;;;21.90;48.40;;;;;;5046762;28;45233;-69
2022/07/02 03:46:52;;;;;;;3.70;2.97;;;21.90;48.40;;;;;;5045945;28;46382;-69
2022/07/02 03:49:19;;;;;;;4.32;3.17;;;21.90;49.00;;;;;;5046361;28;45323;-69
2022/07/02 03:51:46;;;;;;;4.03;3.03;;;21.90;48.30;;;;;;5046426;28;45375;-69
2022/07/02 03:54:12;;;;;;;3.15;2.75;;;21.90;48.30;;;;;;5032281;28;45182;-69
2022/07/02 03:56:41;;;;;;;3.80;2.90;;;21.90;48.40;;;;;;5026128;28;46426;-69
2022/07/02 03:59:07;;;;;;;3.88;2.55;;;21.90;48.20;;;;;;5026171;28;45397;-69
2022/07/02 04:01:34;;;;;;;3.95;2.83;;;21.90;48.40;;;;;;5026259;28;45289;-69
2022/07/02 04:04:01;;;;;;;3.55;2.78;;;21.90;48.40;;;;;;5026678;28;45219;-69
2022/07/02 04:06:28;;;;;;;3.95;2.53;;;21.80;48.20;;;;;;5026054;28;46391;-68
2022/07/02 04:08:54;;;;;;;2.90;2.38;;;21.80;48.30;;;;;;5028168;28;45247;-69
2022/07/02 04:11:21;;;;;;;3.80;2.97;;;21.80;48.40;;;;;;5046445;28;45323;-69
2022/07/02 04:13:49;;;;;;;3.53;2.88;;;21.80;48.20;;;;;;5046257;28;45280;-69
2022/07/02 04:16:16;;;;;;;4.00;2.85;;;21.80;48.20;;;;;;5045777;28;45840;-69
2022/07/02 04:18:43;;;;;;;3.10;2.67;;;21.80;48.20;;;;;;5045877;28;45236;-69
2022/07/02 04:21:10;;;;;;;2.97;2.50;;;21.80;48.30;;;;;;5045900;28;45249;-69
2022/07/02 04:23:37;;;;;;;3.90;2.78;;;21.80;48.20;;;;;;5045237;28;45313;-69
2022/07/02 04:26:04;;;;;;;3.30;2.45;;;21.80;48.30;;;;;;5045574;28;46413;-69
2022/07/02 04:28:31;;;;;;;3.40;2.47;;;21.80;48.40;;;;;;5045853;28;45187;-69
2022/07/02 04:30:59;;;;;;;2.42;2.22;;;21.80;48.30;;;;;;5045955;28;45261;-68
2022/07/02 04:33:26;;;;;;;2.75;2.35;;;21.80;48.40;;;;;;5045949;28;45251;-68
2022/07/02 04:35:53;;;;;;;2.88;2.40;;;21.80;48.30;;;;;;5045652;28;46480;-68
2022/07/02 04:38:20;;;;;;;2.30;2.10;;;21.80;48.30;;;;;;5045553;28;45292;-69
2022/07/02 04:40:47;;;;;;;2.10;1.90;;;21.70;48.90;;;;;;5045723;28;45210;-68
2022/07/02 04:43:13;;;;;;;3.15;2.47;;;21.70;48.30;;;;;;5045725;28;45412;-67
2022/07/02 04:45:40;;;;;;;3.05;2.22;;;21.70;48.40;;;;;;5045433;28;46374;-68
2022/07/02 04:48:09;;;;;;;3.85;2.58;;;21.70;48.40;;;;;;5045023;28;45738;-67
2022/07/02 04:50:35;;;;;;;2.28;2.00;;;21.70;48.50;;;;;;5045538;28;45313;-67
2022/07/02 04:53:02;;;;;;;2.20;2.00;;;21.70;48.40;;;;;;5041095;28;45244;-67
2022/07/02 04:55:29;;;;;;;2.55;1.95;;;21.70;48.50;;;;;;5025338;28;45763;-68
2022/07/02 04:57:56;;;;;;;2.95;2.22;;;21.70;48.50;;;;;;5025337;28;45205;-67
2022/07/02 05:00:23;;;;;;;4.43;2.17;;;21.70;48.50;;;;;;5025475;28;45290;-67
2022/07/02 05:02:49;;;;;;;2.88;2.10;;;21.70;48.40;;;;;;5025512;28;45234;-67
2022/07/02 05:05:18;;;;;;;3.40;2.20;;;21.80;48.40;;;;;;5025137;28;45483;-67
2022/07/02 05:07:44;;;;;;;3.03;1.95;;;21.80;48.40;;;;;;5025257;28;45400;-67
2022/07/02 05:10:12;;;;;;;2.42;2.10;;;21.80;48.50;;;;;;5038034;28;45320;-67
2022/07/02 05:12:39;;;;;;;2.30;2.03;;;21.70;48.40;;;;;;5045456;28;45372;-67
2022/07/02 05:15:07;;;;;;;2.17;1.98;;;21.70;49.10;;;;;;5045209;28;47592;-67
2022/07/02 05:17:34;;;;;;;2.55;1.75;;;21.70;48.40;;;;;;5045199;28;45175;-68
2022/07/02 05:20:00;;;;;;;2.30;2.10;;;21.70;48.40;;;;;;5045181;28;45262;-67
2022/07/02 05:22:29;;;;;;;2.15;1.88;;;21.70;48.40;;;;;;5045192;28;45311;-67
2022/07/02 05:24:55;;;;;;;2.28;1.90;;;21.70;48.40;;;;;;5044912;28;46439;-68
2022/07/02 05:27:22;;;;;;;2.47;2.05;;;21.70;48.40;;;;;;5044995;28;45151;-67
2022/07/02 05:29:49;;;;;;;2.13;1.67;;;21.70;48.30;;;;;;5045010;28;45212;-67
2022/07/02 05:32:16;;;;;;;2.10;1.90;;;21.70;48.30;;;;;;5045196;28;45178;-67
2022/07/02 05:34:43;;;;;;;1.60;1.50;;;21.70;48.40;;;;;;5044796;28;45276;-68
2022/07/02 05:37:09;;;;;;;2.17;1.10;;;21.70;49.60;;;;;;5048282;28;45300;-68
2022/07/02 05:39:38;;;;;;;0.85;0.85;;;21.70;50.50;;;;;;5048390;28;45218;-68
2022/07/02 05:42:06;;;;;;;0.90;0.90;;;21.60;50.80;;;;;;5048416;28;45479;-68
2022/07/02 05:44:33;;;;;;;0.73;0.73;;;21.60;51.20;;;;;;5048104;28;46673;-68
2022/07/02 05:46:59;;;;;;;0.77;0.77;;;21.50;51.30;;;;;;5047963;28;45275;-67
2022/07/02 05:49:26;;;;;;;0.90;0.90;;;21.50;51.50;;;;;;5048341;28;45335;-67
2022/07/02 05:51:53;;;;;;;0.70;0.70;;;21.50;51.90;;;;;;5048279;28;45197;-67
2022/07/02 05:54:20;;;;;;;0.77;0.77;;;21.50;51.70;;;;;;5032622;28;47319;-68
2022/07/02 05:56:48;;;;;;;0.80;0.70;;;21.50;51.80;;;;;;5027858;28;45329;-68
2022/07/02 05:59:15;;;;;;;0.80;0.80;;;21.40;52.60;;;;;;5028135;28;45243;-68
2022/07/02 06:01:42;;;;;;;0.90;0.90;;;21.40;52.90;;;;;;5028325;28;45482;-68
2022/07/02 06:04:09;;;;;;;0.88;0.88;;;21.30;53.70;;;;;;5027776;28;46359;-68
2022/07/02 06:09:20;;;;;;;1.75;0.80;;;21.30;54.00;;;;;;5030920;28;45318;-68
2022/07/02 06:11:48;;;;;;;0.90;0.90;;;21.30;54.40;;;;;;5048361;28;45466;-68
2022/07/02 06:14:15;;;;;;;2.60;0.80;;;21.20;54.50;;;;;;5042257;28;45569;-68
2022/07/02 06:16:41;;;;;;;2.50;1.15;;;21.20;54.50;;;;;;5034521;28;45337;-67
2022/07/02 06:19:08;;;;;;;1.52;1.00;;;21.20;54.40;;;;;;5043683;28;45181;-68
2022/07/02 06:21:35;;;;;;;1.92;1.10;;;21.20;54.10;;;;;;5046994;28;45515;-68
2022/07/02 06:24:02;;;;;;;1.83;0.80;;;21.30;54.30;;;;;;5027265;28;45781;-68
2022/07/02 06:26:29;;;;;;;2.55;0.85;;;21.40;54.30;;;;;;5027646;28;45482;-68
2022/07/02 06:28:57;;;;;;;2.03;0.93;;;21.40;54.50;;;;;;5027481;28;45378;-68
2022/07/02 06:31:24;;;;;;;1.25;0.75;;;21.30;55.00;;;;;;5039168;28;45447;-68
2022/07/02 06:33:51;;;;;;;0.90;0.90;;;21.30;54.80;;;;;;5048106;28;45480;-69
2022/07/02 06:36:21;;;;;;;2.72;1.10;;;21.30;54.80;;;;;;5047456;28;45368;-68
2022/07/02 06:38:48;;;;;;;1.52;0.90;;;21.30;54.80;;;;;;5047628;28;45174;-68
2022/07/02 06:43:59;;;;;;;1.20;0.90;;;21.30;55.10;;;;;;5047105;28;45292;-68
2022/07/02 06:46:26;;;;;;;1.05;0.80;;;21.30;55.20;;;;;;5046711;28;45339;-68
2022/07/02 06:48:53;;;;;;;1.85;0.85;;;21.30;55.30;;;;;;5032304;28;45350;-68
2022/07/02 06:51:20;;;;;;;2.47;0.80;;;21.30;55.40;;;;;;5027419;28;45477;-68
2022/07/02 06:53:47;;;;;;;0.77;0.73;;;21.30;55.70;;;;;;5037661;28;45210;-67
2022/07/02 06:56:14;;;;;;;1.10;1.00;;;21.30;55.40;;;;;;5047031;28;45180;-68
2022/07/02 06:58:41;;;;;;;0.80;0.80;;;21.30;55.40;;;;;;5047153;28;45186;-67
2022/07/02 07:01:09;;;;;;;1.58;1.00;;;21.30;55.70;;;;;;5047063;28;45400;-65
2022/07/02 07:03:36;;;;;;;1.42;0.82;;;21.30;56.30;;;;;;5046634;28;45455;-67
2022/07/02 07:06:03;;;;;;;0.77;0.77;;;21.30;56.50;;;;;;5046809;28;45231;-67
2022/07/02 07:08:30;;;;;;;0.63;0.63;;;21.30;56.50;;;;;;5046920;28;45154;-67
2022/07/02 07:10:57;;;;;;;3.00;0.90;;;21.30;56.40;;;;;;5027956;28;45188;-67
2022/07/02 07:13:24;;;;;;;1.85;0.80;;;21.40;56.50;;;;;;5026390;28;47437;-67
2022/07/02 07:15:51;;;;;;;3.42;0.93;;;21.40;56.60;;;;;;5026486;28;45237;-68
2022/07/02 07:18:19;;;;;;;1.27;0.82;;;21.40;56.70;;;;;;5026680;28;45226;-68
2022/07/02 07:20:47;;;;;;;5.07;1.15;;;21.40;56.60;;;;;;5026753;28;45233;-68
2022/07/02 07:23:14;;;;;;;5.68;1.08;;;21.40;57.00;;;;;;5042865;28;47451;-68
2022/07/02 07:25:41;;;;;;;0.90;0.90;;;21.40;56.70;;;;;;5046535;28;45308;-68
2022/07/02 07:28:07;;;;;;;1.77;1.00;;;21.50;56.90;;;;;;5046640;28;45241;-69
2022/07/02 07:30:34;;;;;;;0.82;0.77;;;21.50;57.00;;;;;;5046788;28;45280;-68
2022/07/02 07:33:01;;;;;;;1.95;0.93;;;21.50;57.00;;;;;;5046420;28;46601;-68
2022/07/02 07:35:29;;;;;;;0.70;0.70;;;21.50;56.70;;;;;;5046366;28;45321;-68
2022/07/02 07:37:59;;;;;;;1.13;0.70;;;21.50;56.90;;;;;;5046578;28;45333;-68
2022/07/02 07:40:27;;;;;;;0.82;0.80;;;21.60;56.90;;;;;;5046671;28;45288;-67
2022/07/02 07:42:54;;;;;;;2.38;1.00;;;21.60;57.00;;;;;;5046466;28;45374;-68
2022/07/02 07:45:20;;;;;;;0.85;0.68;;;21.60;56.60;;;;;;5046251;28;45345;-68
2022/07/02 07:47:47;;;;;;;1.88;1.15;;;21.60;56.30;;;;;;5046102;28;45297;-68
2022/07/02 07:50:14;;;;;;;1.00;1.00;;;21.70;56.10;;;;;;5046478;28;45415;-68
2022/07/02 07:52:42;;;;;;;1.73;0.90;;;21.70;56.00;;;;;;5045883;28;46403;-67
2022/07/02 07:55:09;;;;;;;2.58;0.80;;;21.80;56.20;;;;;;5046115;28;45389;-68
2022/07/02 07:57:36;;;;;;;0.80;0.80;;;21.80;56.40;;;;;;5046387;28;45354;-68
2022/07/02 08:00:04;;;;;;;0.80;0.80;;;21.80;56.20;;;;;;5045204;28;45479;-68
2022/07/02 08:02:31;;;;;;;0.80;0.80;;;21.90;56.50;;;;;;5046002;28;46388;-69
2022/07/02 08:04:57;;;;;;;1.45;0.80;;;21.90;56.60;;;;;;5045914;28;45260;-68
2022/07/02 08:07:24;;;;;;;1.25;0.60;;;21.90;56.30;;;;;;5046079;28;45372;-68
2022/07/02 08:09:54;;;;;;;1.42;0.90;;;21.90;56.00;;;;;;5046162;28;45293;-69
2022/07/02 08:12:21;;;;;;;1.08;0.70;;;22.00;55.90;;;;;;5045835;28;45465;-68
2022/07/02 08:14:52;;;;;;;0.82;0.80;;;22.00;56.10;;;;;;5045929;28;45322;-69
2022/07/02 08:17:19;;;;;;;0.90;0.90;;;22.10;56.00;;;;;;5046116;28;45139;-68
2022/07/02 08:19:46;;;;;;;0.95;0.80;;;22.10;56.10;;;;;;5045248;28;45229;-69
2022/07/02 08:22:13;;;;;;;0.82;0.82;;;22.10;56.60;;;;;;5045642;28;46722;-68
2022/07/02 08:24:40;;;;;;;1.38;0.73;;;22.20;55.40;;;;;;5045622;28;45405;-68
2022/07/02 08:27:08;;;;;;;1.08;0.80;;;22.20;55.60;;;;;;5045860;28;45292;-68
2022/07/02 08:29:35;;;;;;;0.68;0.68;;;22.30;55.70;;;;;;5045902;28;45186;-68
2022/07/02 08:32:02;;;;;;;2.53;1.10;;;22.30;55.70;;;;;;5045467;28;45237;-69
2022/07/02 08:34:29;;;;;;;0.60;0.60;;;22.30;55.70;;;;;;5045468;28;45365;-68
2022/07/02 08:36:55;;;;;;;1.92;0.95;;;22.40;55.00;;;;;;5045661;28;45316;-68
2022/07/02 08:39:22;;;;;;;2.17;0.82;;;22.40;55.60;;;;;;5045855;28;45376;-68
2022/07/02 08:41:49;;;;;;;1.40;0.70;;;22.50;55.60;;;;;;5045405;28;46360;-68
2022/07/02 08:44:17;;;;;;;0.90;0.90;;;22.50;55.60;;;;;;5045411;28;45293;-69
2022/07/02 08:46:44;;;;;;;1.42;0.70;;;22.50;55.60;;;;;;5045068;28;45610;-69
2022/07/02 08:49:11;;;;;;;0.80;0.80;;;22.60;55.50;;;;;;5045669;28;45357;-69
2022/07/02 08:51:38;;;;;;;1.88;0.90;;;22.60;55.60;;;;;;5045207;28;46544;-68
2022/07/02 08:54:05;;;;;;;0.95;0.77;;;22.70;55.50;;;;;;5032174;28;45209;-68
2022/07/02 08:56:32;;;;;;;1.02;0.80;;;22.70;55.50;;;;;;5025484;28;45286;-69
2022/07/02 08:59:00;;;;;;;0.70;0.70;;;22.70;55.60;;;;;;5025549;28;45417;-68
2022/07/02 09:01:28;;;;;;;3.67;0.88;;;22.80;55.40;;;;;;5025209;28;45296;-68
2022/07/02 09:03:55;;;;;;;0.70;0.70;;;22.80;55.10;;;;;;5025214;28;45186;-68
2022/07/02 09:06:25;;;;;;;0.80;0.80;;;22.90;55.20;;;;;;5025385;28;45321;-69
2022/07/02 09:08:52;;;;;;;0.93;0.90;;;22.90;55.10;;;;;;5027076;28;45561;-68
2022/07/02 09:11:19;;;;;;;1.85;0.70;;;22.90;55.20;;;;;;5047627;28;46769;-68
2022/07/02 09:13:46;;;;;;;0.80;0.80;;;23.00;55.10;;;;;;5048669;28;45198;-68
2022/07/02 09:16:13;;;;;;;1.25;0.90;;;23.00;55.50;;;;;;5048748;28;45247;-68
2022/07/02 09:18:41;;;;;;;0.90;0.90;;;23.00;54.70;;;;;;5048870;28;45447;-68
2022/07/02 09:21:08;;;;;;;0.70;0.70;;;23.10;54.60;;;;;;5048437;28;45330;-68
2022/07/02 09:23:35;;;;;;;0.80;0.70;;;23.10;54.30;;;;;;5048452;28;45266;-69
2022/07/02 09:26:04;;;;;;;0.90;0.73;;;23.20;54.30;;;;;;5048518;28;45260;-69
2022/07/02 09:28:30;;;;;;;0.85;0.68;;;23.20;54.40;;;;;;5048721;28;45296;-69
2022/07/02 09:31:03;;;;;;;0.73;0.73;;;23.30;54.50;;;;;;5047732;28;45337;-68
2022/07/02 09:33:31;;;;;;;1.90;0.90;;;23.30;54.50;;;;;;5048040;28;45245;-69
2022/07/02 09:35:59;;;;;;;1.10;0.77;;;23.30;54.20;;;;;;5048284;28;45307;-68
2022/07/02 09:38:26;;;;;;;1.45;0.68;;;23.40;54.70;;;;;;5048432;28;45233;-68
2022/07/02 09:40:54;;;;;;;0.85;0.73;;;23.50;54.40;;;;;;5048090;28;46401;-68
2022/07/02 09:43:28;;;;;;;0.80;0.80;;;23.50;54.50;;;;;;5047836;28;45356;-69
2022/07/02 09:45:55;;;;;;;0.80;0.73;;;23.50;54.10;;;;;;5048133;28;45329;-68
2022/07/02 09:48:22;;;;;;;2.20;0.77;;;23.60;53.50;;;;;;5048030;28;45292;-68
2022/07/02 09:50:49;;;;;;;0.70;0.70;;;23.60;53.10;;;;;;5047954;28;45453;-68
2022/07/02 09:53:19;;;;;;;0.68;0.68;;;23.70;53.40;;;;;;5047768;28;45292;-68
2022/07/02 09:55:48;;;;;;;2.10;0.70;;;23.70;52.90;;;;;;5048011;28;45347;-68
2022/07/02 09:58:15;;;;;;;1.00;1.00;;;23.70;52.70;;;;;;5047612;28;45176;-68
2022/07/02 10:00:44;;;;;;;0.90;0.90;;;23.80;53.00;;;;;;5047764;28;47328;-68
2022/07/02 10:03:11;;;;;;;1.70;0.80;;;23.80;52.70;;;;;;5046605;28;45329;-69
2022/07/02 10:05:38;;;;;;;0.77;0.68;;;23.80;52.70;;;;;;5047843;28;45365;-68
2022/07/02 10:08:06;;;;;;;1.42;0.73;;;23.80;52.50;;;;;;5048318;28;45123;-68
2022/07/02 10:10:36;;;;;;;0.77;0.77;;;23.80;52.30;;;;;;5047708;28;45274;-68
2022/07/02 10:13:03;;;;;;;0.70;0.70;;;23.90;52.20;;;;;;5047832;28;45214;-68
2022/07/02 10:15:31;;;;;;;1.10;1.00;;;23.90;52.20;;;;;;5047769;28;45189;-68
2022/07/02 10:17:58;;;;;;;0.93;0.68;;;24.00;52.10;;;;;;5048051;28;45182;-68
2022/07/02 10:20:25;;;;;;;0.95;0.75;;;24.10;51.90;;;;;;5047694;28;46579;-68
2022/07/02 10:22:52;;;;;;;0.50;0.50;;;24.10;51.50;;;;;;5046288;28;45367;-68
2022/07/02 10:25:19;;;;;;;0.88;0.75;;;24.10;51.50;;;;;;5047349;28;45252;-68
2022/07/02 10:27:48;;;;;;;0.73;0.73;;;24.10;51.40;;;;;;5047884;28;45178;-68
2022/07/02 10:30:15;;;;;;;0.70;0.70;;;24.20;51.80;;;;;;5047539;28;45267;-68
2022/07/02 10:32:44;;;;;;;1.10;0.82;;;24.20;51.30;;;;;;5047367;28;45368;-68
2022/07/02 10:35:12;;;;;;;0.98;0.80;;;24.30;51.20;;;;;;5047569;28;45122;-68
2022/07/02 10:37:39;;;;;;;1.33;0.70;;;24.30;51.10;;;;;;5047849;28;45324;-69
2022/07/02 10:40:07;;;;;;;1.48;0.70;;;24.40;51.00;;;;;;5047330;28;46599;-69
2022/07/02 10:42:41;;;;;;;2.08;0.65;;;24.40;50.80;;;;;;5047140;28;45249;-69
2022/07/02 10:45:15;;;;;;;1.15;0.90;;;24.50;50.90;;;;;;5047201;28;44755;-69
2022/07/02 10:48:00;;;;;;;0.85;0.80;;;24.50;50.70;;;;;;5047168;28;45310;-67
2022/07/02 10:50:38;;;;;;;0.85;0.68;;;24.50;50.70;;;;;;5047197;28;46410;-68
2022/07/02 10:53:07;;;;;;;1.13;0.80;;;24.60;50.90;;;;;;5042324;28;45165;-68
2022/07/02 10:55:34;;;;;;;0.93;0.90;;;24.70;50.70;;;;;;5024275;28;45365;-69
2022/07/02 10:58:01;;;;;;;0.70;0.70;;;24.70;50.80;;;;;;5027389;28;45311;-69
2022/07/02 11:00:34;;;;;;;1.65;0.88;;;24.70;50.40;;;;;;5026912;28;46327;-68
2022/07/02 11:03:12;;;;;;;1.00;0.80;;;24.80;50.30;;;;;;5026934;28;46110;-68
2022/07/02 11:05:52;;;;;;;1.60;0.70;;;24.90;50.60;;;;;;5032958;28;45502;-68
2022/07/02 11:08:55;;;;;;;0.80;0.80;;;24.90;50.40;;;;;;5040247;28;45251;-69
2022/07/02 11:11:30;;;;;;;0.73;0.65;;;25.00;50.50;;;;;;5038931;28;46362;-69
2022/07/02 11:14:00;;;;;;;5.88;0.90;;;25.10;50.50;;;;;;5046628;28;45190;-68
2022/07/02 11:16:31;;;;;;;1.02;0.80;;;25.10;49.90;;;;;;5035668;28;45448;-68
2022/07/02 11:18:58;;;;;;;0.85;0.60;;;25.20;50.20;;;;;;5046910;28;45253;-69
2022/07/02 11:21:25;;;;;;;2.83;0.90;;;25.20;49.90;;;;;;5048258;28;45370;-68
2022/07/02 11:23:52;;;;;;;0.82;0.77;;;25.30;49.60;;;;;;5056236;28;46522;-67
2022/07/02 11:26:20;;;;;;;0.98;0.80;;;25.40;49.70;;;;;;5044706;28;45897;-68
2022/07/02 11:28:47;;;;;;;2.92;0.80;;;25.50;49.00;;;;;;5059467;28;45514;-70
2022/07/02 11:31:14;;;;;;;0.70;0.70;;;25.50;48.60;;;;;;5038165;28;46730;-68
2022/07/02 11:33:47;;;;;;;0.70;0.70;;;25.60;48.30;;;;;;5042984;28;46222;-68
2022/07/02 11:36:13;;;;;;;1.20;1.10;;;25.60;48.50;;;;;;5046194;28;45396;-67
2022/07/02 11:38:41;;;;;;;0.80;0.80;;;25.70;48.60;;;;;;5030734;28;45486;-68
2022/07/02 11:41:18;;;;;;;2.00;1.10;;;25.80;48.20;;;;;;5048987;28;46525;-68
2022/07/02 11:43:45;;;;;;;1.13;0.93;;;25.90;48.00;;;;;;5055685;28;45383;-67
2022/07/02 11:46:12;;;;;;;2.20;0.90;;;25.90;47.80;;;;;;5066031;28;45277;-66
2022/07/02 11:48:39;;;;;;;1.05;0.75;;;26.00;48.10;;;;;;5057547;28;45246;-69
2022/07/02 11:51:07;;;;;;;0.90;0.75;;;26.10;48.10;;;;;;5066256;28;46740;-69
2022/07/02 11:53:34;;;;;;;1.55;1.10;;;26.20;47.80;;;;;;5057689;28;45336;-68
2022/07/02 11:56:08;;;;;;;3.10;0.90;;;26.30;48.10;;;;;;5047133;28;45197;-69
2022/07/02 11:58:42;;;;;;;5.45;1.33;;;26.40;48.00;;;;;;5047079;28;45513;-68
2022/07/02 12:01:23;;;;;;;1.05;0.95;;;26.50;47.70;;;;;;5046687;28;45315;-69
2022/07/02 12:03:50;;;;;;;0.80;0.80;;;26.50;47.80;;;;;;5042658;28;45343;-69
2022/07/02 12:06:18;;;;;;;0.73;0.73;;;26.50;46.70;;;;;;5026542;28;45297;-69
2022/07/02 12:08:45;;;;;;;0.70;0.70;;;26.50;47.50;;;;;;5027219;28;45466;-69
2022/07/02 12:11:13;;;;;;;0.75;0.75;;;26.60;46.90;;;;;;5046627;28;47580;-68
2022/07/02 12:13:40;;;;;;;2.15;0.90;;;26.70;47.00;;;;;;5046412;28;45341;-68
2022/07/02 12:16:09;;;;;;;0.70;0.70;;;26.70;46.50;;;;;;5046386;28;45317;-68
2022/07/02 12:18:36;;;;;;;1.00;1.00;;;26.80;46.40;;;;;;5026608;28;45298;-68
2022/07/02 12:21:09;;;;;;;0.80;0.80;;;26.90;46.40;;;;;;5034259;28;46403;-68
2022/07/02 12:23:44;;;;;;;0.70;0.70;;;27.00;46.80;;;;;;5046001;28;45265;-68
2022/07/02 12:26:11;;;;;;;0.70;0.70;;;27.00;46.20;;;;;;5046332;28;45171;-68
2022/07/02 12:31:30;;;;;;;0.88;0.57;;;27.10;45.90;;;;;;5009879;28;46046;-69
2022/07/02 12:33:57;;;;;;;0.80;0.77;;;27.20;46.00;;;;;;5045948;28;45181;-68
2022/07/02 12:36:24;;;;;;;1.00;0.90;;;27.30;45.70;;;;;;5046787;28;45317;-69
2022/07/02 12:38:52;;;;;;;1.50;0.70;;;27.40;45.60;;;;;;5046890;28;45323;-68
2022/07/02 12:41:19;;;;;;;1.52;0.95;;;27.40;45.80;;;;;;5046664;28;45307;-69
2022/07/02 12:43:54;;;;;;;0.90;0.80;;;27.40;45.40;;;;;;5046210;28;45266;-69
2022/07/02 12:46:21;;;;;;;1.88;1.60;;;27.50;45.30;;;;;;5045743;28;45182;-69
2022/07/02 12:48:48;;;;;;;1.80;1.63;;;27.50;45.00;;;;;;5046803;28;45353;-69
2022/07/02 12:51:15;;;;;;;1.90;1.10;;;27.60;45.10;;;;;;5046268;28;45336;-69
2022/07/02 12:53:42;;;;;;;1.27;1.27;;;27.70;45.10;;;;;;5045864;28;45374;-69
2022/07/02 12:56:10;;;;;;;0.90;0.73;;;27.80;45.20;;;;;;5046398;28;45422;-68
2022/07/02 12:58:37;;;;;;;0.90;0.90;;;27.90;45.10;;;;;;5046633;28;45215;-69